Time;durP1;ratioP1;P1;durP2;ratioP2;P2;SDS_P1;SDS_P2;PMS_P1;PMS_P2;Temp;Humidity;BMP_temperature;BMP_pressure;BME280_temperature;BME280_humidity;BME280_pressure;Samples;Min_cycle;Max_cycle;Signal;HPM_P1;HPM_P2
2022/01/08 00:02:08;;;;;;;23.27;16.25;;;;;;;-0.47;78.26;98533.81;5013959;28;20040;-73
2022/01/08 00:04:34;;;;;;;24.17;16.23;;;;;;;-0.55;77.33;98525.69;5056441;28;20076;-74
2022/01/08 00:06:59;;;;;;;23.67;16.48;;;;;;;-1.09;78.22;98454.31;5023745;28;20025;-73
2022/01/08 00:09:25;;;;;;;22.88;16.13;;;;;;;-0.69;78.64;98498.31;5019399;28;20038;-74
2022/01/08 00:11:50;;;;;;;23.20;16.23;;;;;;;-0.66;78.82;98502.41;5018133;28;20503;-73
2022/01/08 00:14:16;;;;;;;23.65;14.57;;;;;;;-0.98;78.23;98436.75;5001898;28;20030;-73
2022/01/08 00:16:42;;;;;;;20.60;14.25;;;;;;;-0.40;78.23;98499.38;4993948;28;20469;-74
2022/01/08 00:19:07;;;;;;;22.25;15.05;;;;;;;-0.42;78.20;98480.75;5037379;28;20033;-73
2022/01/08 00:21:33;;;;;;;23.77;14.90;;;;;;;-0.42;78.52;98473.09;5020215;28;20041;-74
2022/01/08 00:23:59;;;;;;;21.08;14.25;;;;;;;-0.59;78.16;98475.66;5004650;28;20026;-73
2022/01/08 00:26:25;;;;;;;21.65;14.80;;;;;;;-0.87;78.75;98459.19;5018360;28;20029;-74
2022/01/08 00:28:50;;;;;;;22.10;15.55;;;;;;;-0.62;78.30;98494.53;5017985;28;20025;-73
2022/01/08 00:31:16;;;;;;;23.08;15.15;;;;;;;-0.59;77.67;98498.66;5018077;28;20044;-74
2022/01/08 00:33:41;;;;;;;23.30;14.85;;;;;;;-0.66;78.15;98515.19;4950543;28;20371;-74
2022/01/08 00:36:07;;;;;;;24.08;16.40;;;;;;;-1.02;79.72;98465.88;5022558;28;20049;-73
2022/01/08 00:38:33;;;;;;;21.80;13.52;;;;;;;-0.73;80.56;98517.25;4999160;28;20044;-73
2022/01/08 00:40:58;;;;;;;20.00;13.73;;;;;;;-0.79;81.62;98517.53;5055371;28;20384;-73
2022/01/08 00:43:24;;;;;;;23.77;14.40;;;;;;;-0.75;79.76;98490.13;5055016;28;20040;-74
2022/01/08 00:45:49;;;;;;;21.90;15.30;;;;;;;-0.76;78.77;98484.19;5057722;28;20024;-73
2022/01/08 00:48:15;;;;;;;23.52;15.55;;;;;;;-0.53;78.50;98497.50;5008229;28;20435;-73
2022/01/08 00:50:43;;;;;;;18.80;14.45;;;;;;;-0.74;78.41;98444.09;5021764;28;20100;-74
2022/01/08 00:53:08;;;;;;;23.98;15.60;;;;;;;-1.09;78.37;98423.69;5036113;28;20059;-73
2022/01/08 00:55:33;;;;;;;24.67;16.27;;;;;;;-1.27;80.06;98470.53;5015744;28;20164;-73
2022/01/08 00:57:59;;;;;;;25.38;15.80;;;;;;;-1.49;80.99;98420.53;5016545;28;20103;-73
2022/01/08 01:00:24;;;;;;;20.92;14.63;;;;;;;-0.98;81.29;98454.63;5021217;28;20026;-74
2022/01/08 01:02:50;;;;;;;22.65;15.45;;;;;;;-0.75;80.60;98450.06;5018731;28;20120;-73
2022/01/08 01:05:15;;;;;;;22.45;15.45;;;;;;;-1.10;80.25;98416.94;4945684;28;20685;-73
2022/01/08 01:07:41;;;;;;;26.98;15.52;;;;;;;-0.84;79.46;98441.19;5000215;28;20116;-73
2022/01/08 01:10:08;;;;;;;21.70;14.57;;;;;;;-0.99;79.69;98427.47;5021446;28;20061;-73
2022/01/08 01:12:34;;;;;;;23.50;14.40;;;;;;;-1.04;79.51;98448.97;4999628;28;20041;-73
2022/01/08 01:14:59;;;;;;;22.88;16.02;;;;;;;-1.44;82.01;98449.22;5039363;28;20030;-73
2022/01/08 01:17:24;;;;;;;22.95;14.70;;;;;;;-1.61;82.25;98380.31;5055718;28;20412;-73
2022/01/08 01:19:50;;;;;;;22.23;15.02;;;;;;;-1.11;82.07;98435.72;4988352;28;20038;-74
2022/01/08 01:22:18;;;;;;;18.50;13.05;;;;;;;-0.85;81.42;98431.84;5015492;28;20135;-73
2022/01/08 01:24:45;;;;;;;22.25;13.77;;;;;;;-0.87;81.31;98427.75;5048663;28;20539;-73
2022/01/08 01:30:04;;;;;;;19.23;14.00;;;;;;;-1.09;79.44;98349.69;5053503;28;20059;-73
2022/01/08 01:48:55;;;;;;;21.17;13.80;;;;;;;-1.20;79.21;98372.38;5046319;28;20048;-74
2022/01/08 01:51:23;;;;;;;20.55;14.57;;;;;;;-0.88;79.61;98413.31;5011191;28;20029;-73
2022/01/08 01:53:49;;;;;;;20.23;13.43;;;;;;;-0.97;79.89;98400.13;5018342;28;20033;-73
2022/01/08 01:56:16;;;;;;;16.38;12.02;;;;;;;-0.84;80.42;98399.47;5055552;28;20567;-74
2022/01/08 01:58:41;;;;;;;20.52;13.05;;;;;;;-0.73;79.93;98415.09;5054971;28;20136;-73
2022/01/08 02:01:07;;;;;;;18.58;12.02;;;;;;;-0.63;80.53;98411.16;5053100;28;20156;-73
2022/01/08 02:03:32;;;;;;;20.40;13.32;;;;;;;-0.50;80.32;98407.97;5038511;28;20513;-74
2022/01/08 02:05:58;;;;;;;18.27;12.90;;;;;;;-0.76;79.71;98407.59;4993425;28;20034;-74
2022/01/08 02:08:23;;;;;;;16.77;11.73;;;;;;;-1.26;80.34;98345.47;5010713;28;20030;-73
2022/01/08 02:10:49;;;;;;;18.95;12.90;;;;;;;-0.89;79.36;98414.22;5010205;28;20025;-74
2022/01/08 02:13:22;;;;;;;21.05;13.50;;;;;;;-0.95;79.50;98415.34;5016274;28;20108;-74
2022/01/08 02:15:51;;;;;;;23.58;15.38;;;;;;;-1.09;78.89;98418.59;5006451;28;20038;-74
2022/01/08 02:18:17;;;;;;;20.65;14.43;;;;;;;-1.43;79.75;98430.44;5020080;28;20041;-74
2022/01/08 02:20:42;;;;;;;23.08;13.73;;;;;;;-2.02;81.30;98344.91;5023764;28;20116;-74
2022/01/08 02:23:07;;;;;;;20.67;13.57;;;;;;;-1.44;82.47;98403.31;4953641;28;20560;-74
2022/01/08 02:25:33;;;;;;;20.67;13.48;;;;;;;-1.28;82.80;98405.91;5019562;28;20088;-74
2022/01/08 02:27:58;;;;;;;18.55;13.25;;;;;;;-1.27;82.08;98407.56;5017314;28;20086;-74
2022/01/08 02:30:24;;;;;;;18.85;12.82;;;;;;;-1.09;81.78;98392.25;5017733;28;20052;-74
2022/01/08 02:32:49;;;;;;;20.88;13.13;;;;;;;-1.20;82.65;98400.44;5005817;28;20022;-74
2022/01/08 02:35:16;;;;;;;20.63;13.20;;;;;;;-1.16;81.43;98376.44;5022414;28;20033;-74
2022/01/08 02:37:42;;;;;;;20.92;13.38;;;;;;;-1.14;81.25;98377.16;5018583;28;20388;-74
2022/01/08 02:40:08;;;;;;;20.58;13.48;;;;;;;-1.29;81.02;98375.41;4978704;28;20488;-74
2022/01/08 02:42:39;;;;;;;21.58;13.18;;;;;;;-1.23;81.08;98368.25;5030204;28;20088;-74
2022/01/08 02:45:06;;;;;;;20.67;13.38;;;;;;;-1.01;80.61;98360.31;5004707;28;20388;-74
2022/01/08 02:47:31;;;;;;;20.75;14.02;;;;;;;-1.09;80.76;98334.38;5025704;28;20068;-74
2022/01/08 02:49:56;;;;;;;18.77;13.10;;;;;;;-1.12;82.89;98341.38;5025720;28;20115;-74
2022/01/08 02:52:22;;;;;;;19.38;12.18;;;;;;;-1.07;82.28;98373.41;5019008;28;20029;-74
2022/01/08 02:54:48;;;;;;;22.02;14.30;;;;;;;-1.72;83.02;98372.38;5012101;28;20033;-74
2022/01/08 02:57:13;;;;;;;19.27;13.10;;;;;;;-1.82;82.59;98333.78;5017322;28;20064;-74
2022/01/08 02:59:39;;;;;;;19.88;13.50;;;;;;;-1.53;83.28;98380.81;5022361;28;20036;-74
2022/01/08 03:02:04;;;;;;;20.05;13.63;;;;;;;-1.42;83.78;98380.28;5009107;28;20092;-74
2022/01/08 03:04:31;;;;;;;19.67;12.85;;;;;;;-1.35;83.95;98389.28;5035821;28;20048;-74
2022/01/08 03:06:56;;;;;;;21.13;12.85;;;;;;;-1.21;83.10;98402.16;5021775;28;20396;-74
2022/01/08 03:09:21;;;;;;;21.25;13.35;;;;;;;-1.04;81.12;98403.88;4997636;28;20033;-74
2022/01/08 03:11:47;;;;;;;20.80;13.18;;;;;;;-1.42;82.23;98396.41;5005660;28;20499;-74
2022/01/08 03:14:12;;;;;;;18.25;12.98;;;;;;;-1.43;83.32;98379.44;5019885;28;20058;-74
2022/01/08 03:16:38;;;;;;;18.83;12.88;;;;;;;-1.34;83.03;98356.94;5013724;28;20037;-74
2022/01/08 03:19:10;;;;;;;20.48;13.20;;;;;;;-1.17;82.81;98362.84;5023246;28;20033;-74
2022/01/08 03:21:39;;;;;;;19.88;13.25;;;;;;;-1.18;82.40;98352.72;5052877;28;20032;-74
2022/01/08 03:24:07;;;;;;;18.35;12.70;;;;;;;-1.08;82.24;98356.44;5015089;28;20040;-74
2022/01/08 03:26:32;;;;;;;18.33;13.38;;;;;;;-1.09;82.55;98352.25;5024661;28;20345;-74
2022/01/08 03:28:58;;;;;;;21.77;14.65;;;;;;;-1.39;82.97;98281.47;5024777;28;20064;-74
2022/01/08 03:31:25;;;;;;;21.80;14.02;;;;;;;-0.87;82.27;98323.06;5057542;28;20102;-74
2022/01/08 03:33:51;;;;;;;20.58;13.55;;;;;;;-0.95;82.27;98320.09;5007272;28;20785;-74
2022/01/08 03:36:17;;;;;;;19.85;13.38;;;;;;;-0.93;82.60;98305.50;5020228;28;20532;-74
2022/01/08 03:38:43;;;;;;;21.63;13.57;;;;;;;-0.85;82.55;98304.22;5023953;28;20021;-74
2022/01/08 03:41:09;;;;;;;20.50;13.02;;;;;;;-1.04;82.01;98260.97;5014943;28;20084;-74
2022/01/08 03:43:34;;;;;;;21.20;13.35;;;;;;;-0.72;82.37;98301.00;5040480;28;20037;-74
2022/01/08 03:46:03;;;;;;;20.30;13.05;;;;;;;-1.36;82.73;98239.69;5001671;28;20025;-74
2022/01/08 03:48:32;;;;;;;17.95;12.98;;;;;;;-1.03;82.89;98266.88;5049212;28;20033;-74
2022/01/08 03:50:58;;;;;;;21.13;12.40;;;;;;;-1.08;83.07;98271.41;5004591;28;20526;-74
2022/01/08 03:53:25;;;;;;;17.55;12.40;;;;;;;-1.27;84.11;98230.72;5048528;28;20021;-75
2022/01/08 03:55:51;;;;;;;19.98;13.32;;;;;;;-1.05;83.54;98273.81;5022855;28;20032;-74
2022/01/08 03:58:16;;;;;;;18.83;13.85;;;;;;;-0.99;82.22;98279.44;4964510;28;20029;-74
2022/01/08 04:00:42;;;;;;;19.65;13.00;;;;;;;-1.19;82.12;98274.50;5022514;28;20777;-74
2022/01/08 04:03:08;;;;;;;19.55;12.73;;;;;;;-1.13;81.17;98296.34;5040262;28;20038;-74
2022/01/08 04:05:34;;;;;;;21.08;13.60;;;;;;;-1.49;83.23;98293.03;5047556;28;20061;-74
2022/01/08 04:08:00;;;;;;;19.63;12.75;;;;;;;-1.25;84.02;98275.66;5042314;28;20105;-74
2022/01/08 04:10:25;;;;;;;19.23;12.93;;;;;;;-1.27;84.12;98266.44;5023066;28;20456;-73
2022/01/08 04:12:56;;;;;;;17.00;12.15;;;;;;;-1.13;83.46;98261.47;4981743;28;20033;-74
2022/01/08 04:17:53;;;;;;;21.20;13.68;;;;;;;-1.00;83.91;98264.19;5025430;28;20123;-74
2022/01/08 04:20:20;;;;;;;20.88;12.32;;;;;;;-1.19;83.24;98215.84;5022699;28;20032;-74
2022/01/08 04:22:48;;;;;;;18.45;12.95;;;;;;;-0.83;83.33;98271.75;5008899;28;20044;-74
2022/01/08 04:25:15;;;;;;;19.45;12.68;;;;;;;-1.11;83.14;98267.28;5025422;28;20021;-74
2022/01/08 04:27:41;;;;;;;17.45;12.55;;;;;;;-1.09;83.74;98273.16;5020620;28;20103;-74
2022/01/08 04:30:07;;;;;;;19.05;13.02;;;;;;;-0.99;85.72;98265.81;4965485;28;20825;-74
2022/01/08 04:32:32;;;;;;;17.33;12.48;;;;;;;-1.10;85.95;98263.00;5004906;28;20033;-74
2022/01/08 04:34:58;;;;;;;18.42;13.63;;;;;;;-1.00;86.32;98262.44;5033436;28;20746;-74
2022/01/08 04:37:23;;;;;;;18.80;12.85;;;;;;;-0.99;85.84;98281.13;5052827;28;20029;-74
2022/01/08 04:39:49;;;;;;;17.40;12.15;;;;;;;-0.86;85.53;98282.16;5005675;28;20045;-74
2022/01/08 04:42:14;;;;;;;19.70;12.70;;;;;;;-0.84;85.38;98275.25;5037445;28;20033;-74
2022/01/08 04:44:40;;;;;;;20.98;12.90;;;;;;;-0.65;85.56;98269.13;4999062;28;20037;-74
2022/01/08 04:47:05;;;;;;;19.52;13.23;;;;;;;-0.56;85.81;98289.06;5024023;28;20033;-74
2022/01/08 04:49:31;;;;;;;20.63;13.10;;;;;;;-0.47;86.24;98295.41;5023686;28;20045;-74
2022/01/08 04:51:56;;;;;;;19.10;13.00;;;;;;;-0.67;84.86;98296.50;5024237;28;20041;-74
2022/01/08 04:54:22;;;;;;;23.58;13.45;;;;;;;-0.90;84.63;98295.16;5021145;28;20045;-74
2022/01/08 04:56:47;;;;;;;21.55;13.80;;;;;;;-0.75;83.67;98313.94;5001652;28;20056;-74
2022/01/08 04:59:13;;;;;;;21.15;13.57;;;;;;;-0.76;83.77;98320.78;5040351;28;20384;-74
2022/01/08 05:01:38;;;;;;;19.75;13.32;;;;;;;-1.07;83.30;98268.78;4992744;28;20037;-74
2022/01/08 05:04:04;;;;;;;19.42;12.82;;;;;;;-0.83;83.67;98307.50;5014561;28;20119;-73
2022/01/08 05:06:31;;;;;;;19.05;13.07;;;;;;;-1.01;83.89;98262.53;5053743;28;20041;-74
2022/01/08 05:08:56;;;;;;;18.00;12.88;;;;;;;-1.04;84.23;98281.38;5001102;28;20354;-74
2022/01/08 05:11:22;;;;;;;20.70;13.68;;;;;;;-0.92;84.38;98299.50;5023601;28;20402;-74
2022/01/08 05:13:47;;;;;;;22.00;13.18;;;;;;;-1.00;84.43;98293.06;5028709;28;20021;-74
2022/01/08 05:16:13;;;;;;;19.48;12.95;;;;;;;-0.79;84.06;98303.06;4994402;28;20604;-74
2022/01/08 05:18:38;;;;;;;20.67;13.43;;;;;;;-1.06;83.55;98257.69;5026374;28;20052;-74
2022/01/08 05:23:41;;;;;;;18.63;11.85;;;;;;;-0.67;83.38;98304.97;5018249;28;20075;-74
2022/01/08 05:26:07;;;;;;;17.80;12.75;;;;;;;-0.64;83.15;98297.16;5022507;28;20107;-74
2022/01/08 05:28:32;;;;;;;17.88;12.43;;;;;;;-1.06;84.37;98269.59;5041550;28;20041;-74
2022/01/08 05:30:58;;;;;;;18.20;12.82;;;;;;;-1.02;84.41;98258.34;5005997;28;20457;-74
2022/01/08 05:33:23;;;;;;;18.98;13.27;;;;;;;-1.01;85.23;98263.34;5040421;28;20036;-74
2022/01/08 05:35:49;;;;;;;18.65;13.23;;;;;;;-1.07;85.58;98268.78;4996819;28;20136;-74
2022/01/08 05:38:14;;;;;;;18.83;12.68;;;;;;;-0.99;86.02;98269.22;5053783;28;20152;-74
2022/01/08 05:40:39;;;;;;;17.17;12.25;;;;;;;-0.92;85.42;98251.81;5013066;28;20511;-74
2022/01/08 05:43:05;;;;;;;19.58;13.20;;;;;;;-1.07;85.99;98224.59;5022131;28;20094;-75
2022/01/08 05:45:31;;;;;;;19.73;13.05;;;;;;;-1.05;86.47;98230.44;5039724;28;20041;-74
2022/01/08 05:47:56;;;;;;;21.33;13.55;;;;;;;-0.63;85.58;98286.00;5007137;28;20460;-74
2022/01/08 05:50:21;;;;;;;20.73;13.20;;;;;;;-0.88;85.60;98298.44;5011283;28;20044;-74
2022/01/08 05:52:48;;;;;;;22.40;14.48;;;;;;;-1.00;86.17;98322.88;5007490;28;20120;-73
2022/01/08 05:55:14;;;;;;;17.17;12.63;;;;;;;-0.98;85.59;98319.34;5017850;28;20457;-74
2022/01/08 05:57:41;;;;;;;22.75;14.20;;;;;;;-1.20;86.97;98354.53;5005673;28;20052;-74
2022/01/08 06:00:08;;;;;;;18.13;13.18;;;;;;;-1.05;87.81;98355.47;5050157;28;20025;-74
2022/01/08 06:02:33;;;;;;;20.60;13.75;;;;;;;-1.12;86.95;98349.84;5002030;28;20094;-74
2022/01/08 06:04:59;;;;;;;18.52;12.70;;;;;;;-0.88;87.11;98355.41;5011803;28;20409;-74
2022/01/08 06:07:24;;;;;;;22.50;13.73;;;;;;;-0.87;87.40;98341.75;5055560;28;20636;-74
2022/01/08 06:09:50;;;;;;;16.25;12.18;;;;;;;-0.73;87.95;98353.81;5028122;28;20121;-74
2022/01/08 06:12:15;;;;;;;18.05;12.50;;;;;;;-0.64;84.84;98350.78;5015195;28;20068;-74
2022/01/08 06:14:41;;;;;;;20.15;13.05;;;;;;;-0.79;85.38;98347.28;5005433;28;20039;-74
2022/01/08 06:17:07;;;;;;;17.88;12.75;;;;;;;-1.29;84.84;98263.16;5023625;28;20057;-74
2022/01/08 06:19:32;;;;;;;20.83;13.05;;;;;;;-1.00;84.53;98323.69;5051888;28;20033;-75
2022/01/08 06:21:59;;;;;;;17.23;12.77;;;;;;;-0.92;85.26;98328.41;5011392;28;20033;-74
2022/01/08 06:24:24;;;;;;;20.48;13.10;;;;;;;-0.81;84.70;98320.19;5021123;28;21080;-74
2022/01/08 06:26:49;;;;;;;20.67;14.65;;;;;;;-0.75;84.57;98312.19;5028694;28;20460;-74
2022/01/08 06:29:15;;;;;;;16.08;12.27;;;;;;;-0.90;85.62;98311.28;4999831;28;20049;-74
2022/01/08 06:31:40;;;;;;;18.90;12.98;;;;;;;-1.00;84.31;98307.56;5002914;28;20463;-74
2022/01/08 06:34:06;;;;;;;18.80;13.32;;;;;;;-0.96;83.15;98321.81;5017246;28;20871;-74
2022/01/08 06:36:31;;;;;;;20.02;13.48;;;;;;;-1.55;84.32;98250.81;5012891;28;20047;-74
2022/01/08 06:38:57;;;;;;;20.98;13.05;;;;;;;-0.98;83.23;98323.63;5015790;28;20036;-74
2022/01/08 06:41:22;;;;;;;21.25;13.80;;;;;;;-0.91;82.45;98332.63;5014640;28;20034;-74
2022/01/08 06:43:48;;;;;;;19.98;12.95;;;;;;;-0.87;82.55;98331.56;5024245;28;20178;-74
2022/01/08 06:46:13;;;;;;;19.42;13.18;;;;;;;-0.91;82.45;98326.66;5016493;28;20029;-74
2022/01/08 06:48:40;;;;;;;20.00;13.77;;;;;;;-1.32;83.07;98291.34;5004090;28;20322;-74
2022/01/08 06:51:06;;;;;;;19.00;13.48;;;;;;;-1.36;85.50;98332.31;5017614;28;20113;-74
2022/01/08 06:53:31;;;;;;;17.60;12.70;;;;;;;-1.45;86.35;98280.94;5001147;28;20043;-74
2022/01/08 06:55:56;;;;;;;21.45;14.10;;;;;;;-1.11;85.74;98326.00;5017196;28;20044;-74
2022/01/08 06:58:24;;;;;;;17.77;12.85;;;;;;;-1.15;85.71;98337.25;5016724;28;20037;-74
2022/01/08 07:00:50;;;;;;;18.40;12.43;;;;;;;-1.17;84.09;98319.47;5032145;28;20104;-74
2022/01/08 07:03:15;;;;;;;21.13;13.30;;;;;;;-1.18;83.07;98332.31;5020718;28;20125;-74
2022/01/08 07:05:41;;;;;;;20.20;13.43;;;;;;;-1.11;84.06;98328.53;5021968;28;20021;-74
2022/01/08 07:08:07;;;;;;;20.23;13.20;;;;;;;-1.21;83.80;98315.41;4962302;28;20029;-74
2022/01/08 07:10:32;;;;;;;20.40;13.60;;;;;;;-1.38;83.80;98275.47;5018133;28;20045;-74
2022/01/08 07:12:58;;;;;;;21.50;13.10;;;;;;;-1.01;83.64;98326.34;4998593;28;20029;-74
2022/01/08 07:15:24;;;;;;;22.10;14.43;;;;;;;-1.04;83.16;98317.13;5003398;28;20017;-74
2022/01/08 07:17:49;;;;;;;21.17;14.60;;;;;;;-0.94;83.93;98330.22;5019102;28;20033;-74
2022/01/08 07:20:15;;;;;;;20.88;14.18;;;;;;;-0.97;84.12;98325.25;5019484;28;20029;-74
2022/01/08 07:22:40;;;;;;;22.02;14.75;;;;;;;-1.03;84.22;98318.75;5007667;28;20032;-74
2022/01/08 07:25:07;;;;;;;19.60;13.02;;;;;;;-1.09;85.68;98324.19;5004273;28;20044;-74
2022/01/08 07:27:33;;;;;;;22.65;14.57;;;;;;;-1.11;84.82;98323.44;5006608;28;20162;-74
2022/01/08 07:30:04;;;;;;;21.30;14.18;;;;;;;-1.20;84.48;98334.13;5027200;28;20042;-74
2022/01/08 07:32:29;;;;;;;26.27;16.33;;;;;;;-1.22;84.33;98330.81;5035555;28;20064;-74
2022/01/08 07:34:55;;;;;;;26.20;17.40;;;;;;;-1.11;84.18;98330.25;5020988;28;20064;-74
2022/01/08 07:37:20;;;;;;;28.20;16.75;;;;;;;-1.06;83.60;98331.69;5022190;28;20379;-74
2022/01/08 07:39:46;;;;;;;24.95;16.30;;;;;;;-1.00;83.79;98335.66;4991286;28;20037;-74
2022/01/08 07:42:11;;;;;;;23.38;15.50;;;;;;;-1.03;83.63;98333.25;5001533;28;20083;-74
2022/01/08 07:44:39;;;;;;;21.33;15.05;;;;;;;-1.04;83.14;98327.31;5034430;28;20029;-74
2022/01/08 07:47:04;;;;;;;20.98;14.38;;;;;;;-1.34;83.65;98282.97;5030552;28;20033;-74
2022/01/08 07:49:29;;;;;;;19.80;14.07;;;;;;;-0.90;83.71;98351.31;5052187;28;20777;-74
2022/01/08 07:51:55;;;;;;;21.58;14.23;;;;;;;-0.98;83.80;98352.53;5019692;28;20034;-75
2022/01/08 07:54:20;;;;;;;21.13;13.82;;;;;;;-1.10;84.45;98345.47;5017209;28;20087;-74
2022/01/08 07:56:46;;;;;;;22.30;14.43;;;;;;;-1.19;84.68;98374.03;5013639;28;20029;-74
2022/01/08 07:59:11;;;;;;;18.98;12.40;;;;;;;-1.19;84.56;98367.22;5019010;28;20030;-74
2022/01/08 08:01:36;;;;;;;17.92;13.18;;;;;;;-1.25;83.49;98361.59;5000097;28;20063;-74
2022/01/08 08:04:02;;;;;;;19.85;13.48;;;;;;;-1.15;83.95;98362.78;5051604;28;20188;-74
2022/01/08 08:06:28;;;;;;;17.40;12.70;;;;;;;-1.18;84.83;98356.09;5008847;28;20044;-74
2022/01/08 08:08:53;;;;;;;19.70;12.95;;;;;;;-1.13;84.55;98345.66;5002028;28;20021;-74
2022/01/08 08:11:19;;;;;;;18.60;12.75;;;;;;;-1.19;83.73;98353.59;4951255;28;20037;-74
2022/01/08 08:13:44;;;;;;;20.52;13.57;;;;;;;-1.62;83.79;98300.47;5006771;28;20442;-74
2022/01/08 08:16:10;;;;;;;20.77;13.63;;;;;;;-1.22;83.19;98346.13;5022578;28;20021;-74
2022/01/08 08:18:35;;;;;;;26.05;16.77;;;;;;;-1.36;83.80;98339.16;5010070;28;20026;-74
2022/01/08 08:21:00;;;;;;;41.40;24.45;;;;;;;-1.29;83.71;98350.69;5027369;28;20527;-74
2022/01/08 08:23:26;;;;;;;34.60;21.63;;;;;;;-1.21;82.89;98342.66;5027910;28;20650;-74
2022/01/08 08:25:51;;;;;;;30.70;18.70;;;;;;;-1.09;82.71;98333.56;5022229;28;20034;-74
2022/01/08 08:28:17;;;;;;;30.88;19.77;;;;;;;-1.07;82.48;98335.13;5008551;28;20117;-74
2022/01/08 08:30:42;;;;;;;34.42;20.52;;;;;;;-1.31;81.74;98295.56;5022432;28;20392;-74
2022/01/08 08:33:08;;;;;;;36.03;20.85;;;;;;;-1.18;82.19;98319.53;5024167;28;20040;-74
2022/01/08 08:35:34;;;;;;;27.70;18.02;;;;;;;-1.08;82.81;98333.47;5024434;28;20064;-74
2022/01/08 08:37:59;;;;;;;27.17;17.38;;;;;;;-1.14;83.38;98338.06;5019988;28;20035;-74
2022/01/08 08:40:25;;;;;;;22.45;15.30;;;;;;;-1.25;83.19;98329.22;5051190;28;20064;-74
2022/01/08 08:42:50;;;;;;;26.48;17.63;;;;;;;-1.31;83.78;98321.09;5001375;28;20164;-74
2022/01/08 08:45:16;;;;;;;26.45;16.65;;;;;;;-1.14;83.23;98338.06;5045644;28;20030;-74
2022/01/08 08:47:42;;;;;;;23.67;16.40;;;;;;;-1.57;83.69;98279.81;5017972;28;20029;-74
2022/01/08 08:50:10;;;;;;;28.05;17.88;;;;;;;-1.38;83.37;98348.63;5017240;28;20167;-74
2022/01/08 08:52:35;;;;;;;24.27;16.65;;;;;;;-1.35;84.10;98340.81;5003720;28;20033;-74
2022/01/08 08:55:01;;;;;;;23.33;15.93;;;;;;;-1.25;84.70;98361.59;4997977;28;20593;-74
2022/01/08 08:57:26;;;;;;;29.52;17.67;;;;;;;-1.18;86.00;98356.09;5006017;28;20050;-74
2022/01/08 08:59:52;;;;;;;31.67;17.23;;;;;;;-1.05;87.00;98363.94;4964071;28;20029;-74
2022/01/08 09:02:17;;;;;;;25.88;17.55;;;;;;;-1.07;86.14;98364.94;4996215;28;20487;-74
2022/01/08 09:04:43;;;;;;;29.65;16.83;;;;;;;-1.13;86.62;98360.13;5037076;28;20118;-74
2022/01/08 09:07:09;;;;;;;26.00;16.13;;;;;;;-1.00;87.73;98351.78;5000864;28;20037;-75
2022/01/08 09:09:35;;;;;;;23.10;15.90;;;;;;;-0.99;87.56;98362.81;5049122;28;20057;-74
2022/01/08 09:12:00;;;;;;;19.75;13.07;;;;;;;-0.79;88.45;98375.38;5047351;28;20033;-74
2022/01/08 09:14:26;;;;;;;18.48;12.77;;;;;;;-0.66;88.76;98367.91;4946005;28;20041;-74
2022/01/08 09:16:54;;;;;;;20.75;13.65;;;;;;;-0.57;87.02;98371.69;5015390;28;20376;-74
2022/01/08 09:19:21;;;;;;;20.75;13.35;;;;;;;-0.60;86.06;98364.22;4993167;28;20503;-74
2022/01/08 09:21:46;;;;;;;17.75;12.02;;;;;;;-0.72;87.69;98363.13;5002188;28;20132;-74
2022/01/08 09:24:12;;;;;;;16.85;11.35;;;;;;;-0.57;88.05;98364.03;5026861;28;20389;-75
2022/01/08 09:26:39;;;;;;;16.17;11.30;;;;;;;-0.50;88.01;98369.66;5032270;28;20124;-74
2022/01/08 09:29:04;;;;;;;18.40;11.32;;;;;;;-0.57;88.15;98353.81;4999937;28;20037;-74
2022/01/08 09:31:30;;;;;;;17.35;11.95;;;;;;;-0.57;87.70;98353.00;5008088;28;20080;-74
2022/01/08 09:33:55;;;;;;;15.50;10.38;;;;;;;-0.44;87.22;98354.84;4994236;28;20029;-74
2022/01/08 09:36:20;;;;;;;14.43;9.98;;;;;;;-0.37;86.70;98339.97;5010309;28;20029;-74
2022/01/08 09:38:46;;;;;;;15.90;11.10;;;;;;;-0.25;84.79;98335.97;5021318;28;20648;-74
2022/01/08 09:41:12;;;;;;;14.20;9.95;;;;;;;-0.17;84.23;98355.97;5037320;28;20029;-74
2022/01/08 09:43:37;;;;;;;14.68;9.90;;;;;;;-0.15;84.49;98352.41;5005333;28;20112;-74
2022/01/08 09:46:03;;;;;;;15.32;10.82;;;;;;;-0.29;84.31;98332.75;5053453;28;20488;-74
2022/01/08 09:48:29;;;;;;;14.20;10.02;;;;;;;0.10;84.47;98376.66;5004845;28;20052;-74
2022/01/08 09:50:54;;;;;;;17.10;10.88;;;;;;;0.13;83.89;98374.75;5051397;28;20341;-74
2022/01/08 09:53:21;;;;;;;13.98;10.27;;;;;;;0.13;83.52;98381.59;5042646;28;20057;-74
2022/01/08 09:55:46;;;;;;;17.15;9.95;;;;;;;0.15;83.65;98383.16;4995039;28;20330;-75
2022/01/08 09:58:12;;;;;;;14.35;10.40;;;;;;;0.17;83.19;98380.53;5018707;28;20288;-74
2022/01/08 10:00:37;;;;;;;17.30;11.20;;;;;;;0.16;82.93;98381.41;5055043;28;20029;-74
2022/01/08 10:03:24;;;;;;;18.02;12.13;;;;;;;0.24;82.91;98378.41;5014932;28;20047;-75
2022/01/08 10:05:54;;;;;;;18.27;11.00;;;;;;;0.27;82.59;98375.69;5028815;28;20064;-75
2022/01/08 10:08:28;;;;;;;18.10;11.15;;;;;;;0.33;81.81;98350.63;5051248;28;20036;-75
2022/01/08 10:11:01;;;;;;;14.00;9.77;;;;;;;0.13;82.10;98326.16;5034908;28;20357;-74
2022/01/08 10:13:34;;;;;;;14.20;9.45;;;;;;;0.34;82.92;98352.25;5018713;28;20508;-75
2022/01/08 10:18:45;;;;;;;15.68;8.75;;;;;;;0.57;81.22;98333.03;5045037;28;20044;-75
2022/01/08 10:21:15;;;;;;;14.48;9.02;;;;;;;0.66;80.01;98346.22;5007458;28;20030;-75
2022/01/08 10:23:43;;;;;;;11.80;7.93;;;;;;;0.74;80.26;98336.34;5009411;28;20036;-73
2022/01/08 10:26:11;;;;;;;14.00;8.20;;;;;;;0.80;80.12;98335.16;4988726;28;20057;-75
2022/01/08 10:28:41;;;;;;;12.30;8.00;;;;;;;0.89;79.26;98334.63;5021545;28;20033;-74
2022/01/08 10:31:12;;;;;;;17.27;8.48;;;;;;;0.94;78.26;98342.88;5011759;28;20079;-75
2022/01/08 10:33:39;;;;;;;13.40;9.48;;;;;;;0.92;77.52;98332.72;5015387;28;20033;-75
2022/01/08 10:36:05;;;;;;;14.40;8.80;;;;;;;0.95;76.98;98329.16;4992011;28;20123;-75
2022/01/08 10:38:31;;;;;;;14.70;9.15;;;;;;;1.02;76.73;98332.16;5017545;28;20041;-77
2022/01/08 10:40:58;;;;;;;14.63;9.02;;;;;;;1.18;77.19;98334.63;5007582;28;20037;-75
2022/01/08 10:43:24;;;;;;;13.25;8.88;;;;;;;1.29;76.49;98324.56;5016565;28;20027;-75
2022/01/08 10:45:50;;;;;;;13.45;8.98;;;;;;;1.29;76.09;98312.56;5014781;28;20029;-75
2022/01/08 10:48:31;;;;;;;13.15;9.27;;;;;;;1.38;76.20;98323.19;5004194;28;20446;-75
2022/01/08 10:51:10;;;;;;;13.90;8.93;;;;;;;1.37;76.44;98306.16;5003873;28;20041;-75
2022/01/08 10:53:57;;;;;;;12.10;8.87;;;;;;;1.39;75.76;98306.88;5016256;28;20059;-75
2022/01/08 10:56:33;;;;;;;13.63;8.63;;;;;;;1.38;74.93;98295.81;5040221;28;20554;-75
2022/01/08 10:59:05;;;;;;;13.60;8.75;;;;;;;1.48;73.17;98294.34;5029441;28;20025;-75
2022/01/08 11:01:38;;;;;;;15.25;8.80;;;;;;;1.46;72.67;98277.41;5017373;28;20549;-75
2022/01/08 11:04:07;;;;;;;13.20;8.85;;;;;;;1.57;71.35;98295.50;4998350;28;20403;-75
2022/01/08 11:06:32;;;;;;;13.40;8.60;;;;;;;1.57;71.25;98285.25;4997290;28;20045;-75
2022/01/08 11:09:01;;;;;;;12.60;8.40;;;;;;;1.65;71.01;98295.03;5034676;28;20060;-75
2022/01/08 11:11:30;;;;;;;13.20;8.90;;;;;;;1.65;71.67;98288.16;4981010;28;20222;-74
2022/01/08 11:14:06;;;;;;;12.70;8.68;;;;;;;1.68;72.05;98289.69;5021747;28;20044;-75
2022/01/08 11:16:32;;;;;;;14.63;8.95;;;;;;;1.77;72.13;98289.13;5043422;28;20033;-75
2022/01/08 11:18:59;;;;;;;14.02;8.43;;;;;;;1.53;72.77;98248.75;5002346;28;20124;-75
2022/01/08 11:21:27;;;;;;;14.05;8.32;;;;;;;1.52;72.00;98238.59;5022149;28;20112;-75
2022/01/08 11:23:53;;;;;;;12.95;7.95;;;;;;;1.95;69.95;98286.31;5000438;28;20096;-75
2022/01/08 11:26:19;;;;;;;11.60;6.85;;;;;;;2.02;69.28;98269.59;5033860;28;20060;-74
2022/01/08 11:28:46;;;;;;;10.65;6.20;;;;;;;2.18;69.30;98274.56;4947022;28;20087;-75
2022/01/08 11:31:15;;;;;;;11.63;7.25;;;;;;;2.12;69.47;98257.84;5001738;28;20445;-75
2022/01/08 11:33:44;;;;;;;12.75;8.32;;;;;;;1.84;69.55;98216.00;4998404;28;20030;-74
2022/01/08 11:36:12;;;;;;;16.60;9.80;;;;;;;2.38;68.95;98255.28;5009477;28;20485;-74
2022/01/08 11:38:37;;;;;;;12.80;8.05;;;;;;;2.45;69.36;98247.09;5013060;28;20044;-74
2022/01/08 11:41:03;;;;;;;11.20;7.38;;;;;;;2.60;68.65;98246.97;5037977;28;20400;-74
2022/01/08 11:43:29;;;;;;;11.57;7.32;;;;;;;2.61;68.12;98244.31;4987208;28;20084;-73